Time;durP1;ratioP1;P1;durP2;ratioP2;P2;SDS_P1;SDS_P2;PMS_P1;PMS_P2;Temp;Humidity;BMP_temperature;BMP_pressure;BME280_temperature;BME280_humidity;BME280_pressure;Samples;Min_cycle;Max_cycle;Signal;HPM_P1;HPM_P2
2023/11/27 00:03:46;;;;;;;0.00;0.00;;;;;;;0.29;74.98;100617.09;15677003;28;20514;-48
2023/11/27 00:11:31;;;;;;;0.00;0.00;;;;;;;0.53;75.40;100613.91;15677011;28;20051;-46
2023/11/27 00:19:11;;;;;;;0.45;0.45;;;;;;;0.58;74.14;100613.44;15670943;28;20053;-48
2023/11/27 00:26:47;;;;;;;0.00;0.00;;;;;;;0.93;73.58;100595.00;15676950;28;20065;-47
2023/11/27 00:34:21;;;;;;;0.30;0.28;;;;;;;0.79;74.65;100592.84;15658672;28;20507;-50
2023/11/27 00:41:58;;;;;;;0.05;0.05;;;;;;;1.00;73.75;100589.91;15675131;28;20041;-48
2023/11/27 00:49:33;;;;;;;0.00;0.00;;;;;;;1.00;74.19;100580.19;15652064;28;20116;-50
2023/11/27 00:57:09;;;;;;;0.00;0.00;;;;;;;1.10;73.94;100569.50;15656424;28;20103;-50
2023/11/27 01:04:42;;;;;;;0.75;0.75;;;;;;;1.14;73.72;100577.97;15655553;28;20107;-51
2023/11/27 01:12:18;;;;;;;0.30;0.30;;;;;;;1.12;74.19;100569.34;15673540;28;20517;-50
2023/11/27 01:19:52;;;;;;;0.00;0.00;;;;;;;0.97;74.34;100569.06;15644941;28;20063;-47
2023/11/27 01:27:29;;;;;;;0.20;0.20;;;;;;;0.45;76.92;100563.63;15656360;28;20037;-49
2023/11/27 01:35:02;;;;;;;0.00;0.00;;;;;;;1.07;74.69;100558.41;15654967;28;20515;-48
2023/11/27 01:42:37;;;;;;;0.00;0.00;;;;;;;1.21;74.35;100557.84;15639860;28;20220;-48
2023/11/27 01:50:11;;;;;;;0.43;0.30;;;;;;;1.26;74.06;100540.56;15674480;28;20045;-47
2023/11/27 01:57:46;;;;;;;0.30;0.25;;;;;;;1.24;74.05;100547.00;15635104;28;20068;-48
2023/11/27 02:05:20;;;;;;;0.00;0.00;;;;;;;0.98;74.94;100534.59;15649010;28;20045;-50
2023/11/27 02:12:56;;;;;;;0.08;0.08;;;;;;;1.02;74.85;100535.09;15653616;28;20095;-51
2023/11/27 02:20:31;;;;;;;0.57;0.57;;;;;;;0.63;77.09;100524.84;15638628;28;20056;-47
2023/11/27 02:28:06;;;;;;;0.43;0.43;;;;;;;1.27;74.38;100526.38;15648494;28;20144;-51
2023/11/27 02:35:40;;;;;;;0.30;0.30;;;;;;;1.05;74.92;100513.66;15657987;28;20106;-47
2023/11/27 02:43:15;;;;;;;0.20;0.20;;;;;;;1.07;74.84;100509.03;15682165;28;20067;-47
2023/11/27 02:50:48;;;;;;;0.55;0.35;;;;;;;1.11;74.46;100499.81;15651202;28;20144;-51
2023/11/27 02:58:24;;;;;;;0.00;0.00;;;;;;;1.33;74.08;100506.41;15664141;28;20571;-51
2023/11/27 03:05:59;;;;;;;0.00;0.00;;;;;;;0.34;77.96;100503.97;15662908;28;20128;-48
2023/11/27 03:13:33;;;;;;;0.38;0.38;;;;;;;0.23;79.05;100493.59;15680694;28;20511;-48
2023/11/27 03:21:08;;;;;;;0.30;0.30;;;;;;;0.00;79.98;100493.22;15655371;28;20339;-52
2023/11/27 03:28:43;;;;;;;0.50;0.17;;;;;;;0.92;76.11;100471.75;15648039;28;20107;-46
2023/11/27 03:36:23;;;;;;;0.05;0.05;;;;;;;1.10;76.48;100461.16;15630690;28;20144;-51
2023/11/27 03:43:59;;;;;;;0.10;0.10;;;;;;;0.75;76.82;100473.47;15660568;28;20049;-48
2023/11/27 03:51:34;;;;;;;0.25;0.25;;;;;;;1.04;75.93;100466.25;15641624;28;20080;-52
2023/11/27 03:59:10;;;;;;;0.10;0.10;;;;;;;0.97;75.77;100455.44;15659254;28;20063;-48
2023/11/27 04:06:46;;;;;;;2.20;1.85;;;;;;;1.22;74.86;100457.25;15660389;28;20399;-50
2023/11/27 04:14:25;;;;;;;0.10;0.10;;;;;;;1.28;75.49;100456.63;15676718;28;20288;-49
2023/11/27 04:22:00;;;;;;;0.00;0.00;;;;;;;1.57;74.28;100454.63;15648469;28;20626;-54
2023/11/27 04:29:36;;;;;;;0.45;0.17;;;;;;;1.24;74.85;100452.63;15686529;28;20124;-49
2023/11/27 04:37:10;;;;;;;0.15;0.15;;;;;;;1.50;74.28;100444.69;15679217;28;21186;-48
2023/11/27 04:44:45;;;;;;;0.10;0.10;;;;;;;1.21;75.19;100436.25;15661845;28;20045;-47
2023/11/27 04:52:19;;;;;;;0.20;0.20;;;;;;;1.56;74.05;100437.91;15682492;28;20043;-53
2023/11/27 04:59:53;;;;;;;0.00;0.00;;;;;;;0.67;77.32;100441.69;15680571;28;20133;-50
2023/11/27 05:07:27;;;;;;;0.13;0.13;;;;;;;-0.07;80.74;100434.91;15661653;28;20225;-50
2023/11/27 05:15:02;;;;;;;0.03;0.03;;;;;;;0.31;79.83;100419.78;15678655;28;20120;-52
2023/11/27 05:22:36;;;;;;;0.10;0.10;;;;;;;0.42;80.48;100418.69;15657293;28;20037;-53
2023/11/27 05:30:13;;;;;;;0.25;0.25;;;;;;;0.47;79.95;100414.66;15661549;28;20051;-49
2023/11/27 05:37:46;;;;;;;0.35;0.35;;;;;;;0.89;77.51;100411.31;15678848;28;20047;-53
2023/11/27 05:45:28;;;;;;;1.13;0.85;;;;;;;0.91;77.80;100395.28;15678439;28;20282;-51
2023/11/27 05:53:01;;;;;;;0.55;0.55;;;;;;;0.58;79.12;100388.97;15678429;28;20051;-50
2023/11/27 06:00:44;;;;;;;0.10;0.10;;;;;;;1.06;77.46;100369.13;15678017;28;20459;-48
2023/11/27 06:08:17;;;;;;;0.00;0.00;;;;;;;0.98;77.30;100376.03;15643613;28;20036;-52
2023/11/27 06:15:52;;;;;;;0.80;0.80;;;;;;;0.84;78.45;100367.81;15677455;28;20041;-47
2023/11/27 06:23:26;;;;;;;0.30;0.30;;;;;;;1.15;77.65;100381.38;15673720;28;20037;-49
2023/11/27 06:31:00;;;;;;;;;;;;;;;1.36;76.35;100371.25;15674095;28;20091;-47
2023/11/27 06:38:34;;;;;;;0.55;0.47;;;;;;;1.21;77.17;100368.38;15656749;28;20384;-49
2023/11/27 06:46:14;;;;;;;0.00;0.00;;;;;;;0.97;77.86;100363.78;15649733;28;20103;-50
2023/11/27 06:53:47;;;;;;;0.80;0.65;;;;;;;0.85;78.24;100364.22;15657404;28;20388;-53
2023/11/27 07:01:28;;;;;;;0.00;0.00;;;;;;;1.22;77.53;100363.91;15673727;28;20037;-50
2023/11/27 07:09:04;;;;;;;0.10;0.10;;;;;;;0.84;78.19;100360.75;15672041;28;20523;-49
2023/11/27 07:16:41;;;;;;;0.20;0.20;;;;;;;1.27;77.48;100353.69;15678855;28;20072;-52
2023/11/27 07:24:15;;;;;;;0.30;0.30;;;;;;;0.98;79.10;100349.59;15683087;28;20461;-50
2023/11/27 07:31:50;;;;;;;0.80;0.65;;;;;;;0.92;79.12;100342.28;15670042;28;20045;-46
2023/11/27 07:39:28;;;;;;;0.00;0.00;;;;;;;0.33;80.86;100338.63;15680956;28;20481;-46
2023/11/27 07:47:04;;;;;;;0.17;0.17;;;;;;;0.30;81.50;100336.28;15667131;28;20419;-48
2023/11/27 07:54:41;;;;;;;0.38;0.38;;;;;;;0.32;82.36;100336.97;15682825;28;20114;-50
2023/11/27 08:02:16;;;;;;;1.48;1.38;;;;;;;0.35;81.63;100336.66;15683985;22;20533;-52
2023/11/27 08:09:50;;;;;;;0.20;0.20;;;;;;;0.18;81.92;100287.38;15617150;28;20041;-53
2023/11/27 08:17:26;;;;;;;0.22;0.22;;;;;;;0.80;80.46;100340.91;15557412;28;20237;-53
2023/11/27 08:25:03;;;;;;;0.38;0.38;;;;;;;0.75;79.31;100293.84;15559297;28;20424;-53
2023/11/27 08:32:39;;;;;;;0.30;0.30;;;;;;;0.82;80.39;100338.94;15563704;28;20037;-52
2023/11/27 08:40:13;;;;;;;0.30;0.30;;;;;;;0.98;80.50;100323.19;15561685;28;20104;-53
2023/11/27 08:47:51;;;;;;;2.72;1.90;;;;;;;1.21;79.89;100319.94;15558384;28;20054;-52
2023/11/27 08:55:28;;;;;;;0.28;0.28;;;;;;;1.15;79.75;100307.38;15556719;28;20125;-52
2023/11/27 09:03:03;;;;;;;0.00;0.00;;;;;;;1.12;79.48;100297.09;15556063;28;20121;-53
2023/11/27 09:10:39;;;;;;;0.00;0.00;;;;;;;1.01;79.81;100290.31;15556836;28;20455;-54
2023/11/27 09:18:15;;;;;;;0.10;0.10;;;;;;;1.24;79.06;100280.81;15568127;28;20484;-53
2023/11/27 09:25:49;;;;;;;0.17;0.17;;;;;;;1.28;78.81;100266.28;15557694;28;20050;-52
2023/11/27 09:33:27;;;;;;;0.30;0.30;;;;;;;1.04;79.64;100268.84;15554055;28;20046;-54
2023/11/27 09:41:02;;;;;;;0.63;0.50;;;;;;;1.24;80.16;100269.41;15552888;28;20033;-52
2023/11/27 09:48:41;;;;;;;0.25;0.25;;;;;;;1.39;80.15;100256.38;15550030;28;20057;-54
2023/11/27 09:56:17;;;;;;;0.00;0.00;;;;;;;1.31;80.55;100243.97;15544473;28;20080;-53
2023/11/27 10:03:53;;;;;;;0.75;0.30;;;;;;;1.27;80.75;100245.28;15552972;28;20042;-52
2023/11/27 10:11:29;;;;;;;0.73;0.63;;;;;;;1.84;78.82;100232.13;15552198;28;20245;-53
2023/11/27 10:19:08;;;;;;;0.00;0.00;;;;;;;1.78;79.27;100215.09;15553919;28;20481;-57
2023/11/27 10:26:42;;;;;;;1.25;0.98;;;;;;;1.95;78.91;100199.19;15570451;28;20523;-55
2023/11/27 10:34:17;;;;;;;0.55;0.30;;;;;;;1.85;79.38;100188.78;15562830;28;20037;-53
2023/11/27 10:41:53;;;;;;;0.28;0.28;;;;;;;2.15;78.36;100183.78;15552106;28;20049;-56
2023/11/27 10:49:32;;;;;;;0.10;0.10;;;;;;;2.47;77.62;100181.03;15557573;28;20041;-56
2023/11/27 10:57:08;;;;;;;0.10;0.10;;;;;;;2.34;79.22;100166.69;15569183;28;20057;-53
2023/11/27 11:04:51;;;;;;;0.00;0.00;;;;;;;2.15;79.52;100138.78;15560683;28;20054;-53
2023/11/27 11:12:25;;;;;;;0.00;0.00;;;;;;;2.34;79.01;100132.25;15559588;28;20034;-56
2023/11/27 11:20:14;;;;;;;0.10;0.10;;;;;;;2.33;78.34;100126.09;15560023;28;20444;-49
2023/11/27 11:27:55;;;;;;;0.52;0.40;;;;;;;2.47;79.37;100108.66;15560573;28;20519;-50
2023/11/27 11:35:33;;;;;;;0.00;0.00;;;;;;;2.38;78.98;100102.59;15546669;28;20400;-52
2023/11/27 11:43:07;;;;;;;0.10;0.10;;;;;;;2.27;79.82;100089.72;15558415;28;20217;-56
2023/11/27 11:50:42;;;;;;;0.43;0.22;;;;;;;2.38;79.51;100080.56;15557151;28;20037;-51
2023/11/27 11:58:28;;;;;;;0.38;0.38;;;;;;;2.56;78.60;100062.59;15559512;28;20046;-56
2023/11/27 12:06:13;;;;;;;0.47;0.47;;;;;;;2.02;81.14;100055.41;15557432;28;20050;-53
2023/11/27 12:13:48;;;;;;;1.98;0.77;;;;;;;2.36;80.28;100051.63;15555222;28;20072;-49
2023/11/27 12:21:26;;;;;;;0.25;0.25;;;;;;;2.34;80.44;100035.09;15554864;28;20053;-50
2023/11/27 12:29:00;;;;;;;0.38;0.38;;;;;;;2.19;79.83;100029.72;15554595;28;20052;-50
2023/11/27 12:36:35;;;;;;;0.10;0.10;;;;;;;1.93;79.92;99971.75;15552205;28;20046;-52
2023/11/27 12:44:15;;;;;;;0.90;0.90;;;;;;;2.33;80.16;100014.06;15556255;28;20042;-49
2023/11/27 12:51:52;;;;;;;0.00;0.00;;;;;;;2.24;80.95;99995.59;15557950;28;20376;-51
2023/11/27 12:59:27;;;;;;;1.20;0.30;;;;;;;2.38;80.27;99971.97;15558569;28;20057;-54
2023/11/27 13:07:05;;;;;;;2.78;2.00;;;;;;;2.19;80.98;99965.31;15562565;28;20563;-50
2023/11/27 13:14:38;;;;;;;1.05;0.65;;;;;;;2.32;79.94;99960.28;15566521;28;20046;-56
2023/11/27 13:22:14;;;;;;;0.30;0.30;;;;;;;2.09;81.11;99954.13;15557472;28;20038;-50
2023/11/27 13:29:50;;;;;;;0.45;0.13;;;;;;;1.98;81.71;99942.94;15557325;28;20077;-50
2023/11/27 13:37:28;;;;;;;0.35;0.20;;;;;;;1.87;82.23;99935.41;15559638;28;20452;-52
2023/11/27 13:45:01;;;;;;;0.00;0.00;;;;;;;1.98;82.50;99915.66;15558540;28;20034;-53
2023/11/27 13:52:36;;;;;;;0.55;0.55;;;;;;;1.57;83.39;99915.88;15555538;28;20058;-53
2023/11/27 14:00:19;;;;;;;2.13;1.77;;;;;;;1.85;82.88;99903.00;15553878;28;20045;-51
2023/11/27 14:07:54;;;;;;;0.00;0.00;;;;;;;1.47;83.85;99907.31;15552453;28;20053;-53
2023/11/27 14:15:47;;;;;;;0.10;0.10;;;;;;;1.71;83.45;99901.09;15553506;28;20042;-52
2023/11/27 14:23:46;;;;;;;1.40;1.30;;;;;;;1.27;84.92;99896.34;15548596;28;20504;-53
2023/11/27 14:31:21;;;;;;;0.00;0.00;;;;;;;1.28;85.10;99890.06;15558020;28;20068;-51
2023/11/27 14:38:57;;;;;;;0.10;0.10;;;;;;;1.23;84.75;99882.63;15565894;28;20052;-52
2023/11/27 14:46:32;;;;;;;1.30;0.43;;;;;;;1.39;84.53;99863.22;15566025;28;20042;-52
2023/11/27 14:54:09;;;;;;;1.55;1.10;;;;;;;1.00;84.33;99858.75;15566699;28;20041;-54
2023/11/27 15:01:43;;;;;;;0.22;0.22;;;;;;;0.77;84.71;99848.09;15570623;28;20492;-56
2023/11/27 15:09:22;;;;;;;0.00;0.00;;;;;;;0.73;84.55;99840.66;15562840;28;20496;-52
2023/11/27 15:16:55;;;;;;;0.00;0.00;;;;;;;0.66;86.19;99847.63;15562607;28;20513;-52
2023/11/27 15:24:30;;;;;;;0.00;0.00;;;;;;;0.66;85.38;99829.97;15569290;28;20045;-52
2023/11/27 15:32:07;;;;;;;0.10;0.10;;;;;;;0.47;85.35;99812.69;15560868;28;20046;-51
2023/11/27 15:39:48;;;;;;;0.00;0.00;;;;;;;0.44;85.84;99802.44;15558685;28;20042;-53
2023/11/27 15:47:26;;;;;;;0.93;0.93;;;;;;;0.17;86.86;99786.97;15558000;28;20460;-54
2023/11/27 15:55:06;;;;;;;0.00;0.00;;;;;;;0.34;86.25;99775.41;15558849;28;20072;-52
2023/11/27 16:02:41;;;;;;;0.52;0.50;;;;;;;0.16;86.87;99758.94;15558602;28;20061;-52
2023/11/27 16:10:20;;;;;;;0.00;0.00;;;;;;;0.06;87.05;99743.28;15556299;28;20069;-52
2023/11/27 16:17:57;;;;;;;0.20;0.20;;;;;;;0.15;86.64;99739.66;15563912;28;20555;-54
2023/11/27 16:25:33;;;;;;;0.20;0.20;;;;;;;0.38;85.66;99729.22;15555526;28;20496;-54
2023/11/27 16:33:09;;;;;;;0.32;0.32;;;;;;;0.03;86.05;99714.59;15554247;28;20089;-52
2023/11/27 16:40:44;;;;;;;1.45;0.52;;;;;;;0.04;86.05;99705.69;15554166;28;20061;-54
2023/11/27 16:48:21;;;;;;;1.02;1.00;;;;;;;0.05;85.96;99695.94;15553526;28;20052;-51
2023/11/27 16:55:59;;;;;;;1.75;1.65;;;;;;;-0.04;84.71;99688.06;15556098;28;20038;-52
2023/11/27 17:03:33;;;;;;;0.13;0.13;;;;;;;-0.03;86.04;99680.97;15553805;28;20104;-52
2023/11/27 17:11:08;;;;;;;0.17;0.17;;;;;;;0.04;84.93;99674.03;15554293;28;20041;-53
2023/11/27 17:18:42;;;;;;;0.13;0.13;;;;;;;-0.06;85.06;99670.75;15554444;28;20068;-51
2023/11/27 17:26:17;;;;;;;0.32;0.22;;;;;;;0.15;84.86;99659.69;15551245;28;20138;-57
2023/11/27 17:33:50;;;;;;;0.00;0.00;;;;;;;-0.15;84.62;99654.13;15552294;28;20046;-53
2023/11/27 17:41:26;;;;;;;;;;;;;;;-0.07;83.89;99640.94;15551748;28;20045;-53
2023/11/27 17:49:00;;;;;;;0.08;0.08;;;;;;;-0.17;84.85;99647.38;15550875;28;20372;-53
2023/11/27 17:56:35;;;;;;;0.35;0.35;;;;;;;0.23;82.82;99630.59;15548109;28;20609;-53
2023/11/27 18:04:08;;;;;;;2.20;1.48;;;;;;;0.06;82.99;99621.13;15548472;28;20141;-52
2023/11/27 18:11:43;;;;;;;0.00;0.00;;;;;;;-0.04;84.12;99627.41;15549289;28;20045;-51
2023/11/27 18:19:17;;;;;;;0.00;0.00;;;;;;;-0.08;82.46;99615.53;15552092;28;20485;-54
2023/11/27 18:26:52;;;;;;;1.45;1.02;;;;;;;-0.09;83.33;99613.91;15549090;28;20141;-55
2023/11/27 18:34:26;;;;;;;0.47;0.47;;;;;;;0.29;82.24;99610.66;15550583;28;20076;-54
2023/11/27 18:42:06;;;;;;;0.00;0.00;;;;;;;-0.07;84.33;99614.56;15550444;28;20041;-55
2023/11/27 18:49:44;;;;;;;0.43;0.43;;;;;;;-0.23;84.07;99606.69;15549242;28;20056;-51
2023/11/27 18:57:18;;;;;;;0.15;0.15;;;;;;;-0.40;84.98;99583.97;15547954;28;20041;-53
2023/11/27 19:04:52;;;;;;;0.70;0.70;;;;;;;-0.18;84.57;99577.19;15548938;28;20113;-51
2023/11/27 19:12:27;;;;;;;0.70;0.70;;;;;;;-0.40;85.81;99568.97;15555889;28;20069;-49
2023/11/27 19:20:00;;;;;;;0.08;0.08;;;;;;;-0.42;85.90;99564.84;15542949;28;20508;-51
2023/11/27 19:27:40;;;;;;;3.08;2.60;;;;;;;-0.36;86.11;99541.28;15559560;28;20093;-55
2023/11/27 19:35:13;;;;;;;2.45;1.85;;;;;;;-0.48;86.62;99533.91;15559833;28;20038;-51
2023/11/27 19:42:48;;;;;;;1.95;1.83;;;;;;;-0.42;86.72;99523.53;15556199;28;20571;-53
2023/11/27 19:50:23;;;;;;;0.10;0.10;;;;;;;-0.31;86.26;99512.59;15555219;28;20052;-51
2023/11/27 19:57:58;;;;;;;1.30;1.20;;;;;;;-0.42;86.47;99513.00;15557260;28;20105;-52
2023/11/27 20:05:36;;;;;;;1.55;1.45;;;;;;;-0.47;86.39;99493.38;15698972;23;20230;-49
2023/11/27 20:13:12;;;;;;;1.05;1.00;;;;;;;-0.59;85.78;99462.13;15736373;28;20037;-51
2023/11/27 20:20:46;;;;;;;0.00;0.00;;;;;;;-0.48;86.51;99495.19;15717474;28;20040;-48
2023/11/27 20:28:21;;;;;;;0.00;0.00;;;;;;;-0.46;86.53;99492.41;15735904;28;20047;-52
2023/11/27 20:35:54;;;;;;;0.00;0.00;;;;;;;-0.45;86.23;99472.97;15734711;28;20124;-52
2023/11/27 20:43:30;;;;;;;0.63;0.63;;;;;;;-0.57;85.47;99480.41;15734746;28;20037;-50
2023/11/27 20:51:04;;;;;;;0.00;0.00;;;;;;;-0.55;85.96;99476.63;15735138;28;20060;-54
2023/11/27 20:58:40;;;;;;;0.10;0.10;;;;;;;-0.61;85.85;99477.28;15734986;28;20044;-47
2023/11/27 21:06:18;;;;;;;0.08;0.08;;;;;;;-0.58;86.06;99470.84;15733662;28;20087;-52
2023/11/27 21:13:54;;;;;;;0.32;0.32;;;;;;;-0.75;86.38;99467.44;15732533;28;20045;-51
2023/11/27 21:21:29;;;;;;;0.28;0.22;;;;;;;-0.43;85.71;99453.31;15730921;28;20086;-50
2023/11/27 21:29:05;;;;;;;0.00;0.00;;;;;;;-0.54;85.84;99444.00;15713726;28;20048;-51
2023/11/27 21:36:40;;;;;;;0.65;0.65;;;;;;;-0.68;86.67;99428.06;15729742;28;20517;-53
2023/11/27 21:44:14;;;;;;;;;;;;;;;-0.77;86.38;99420.19;15733997;28;20131;-53
2023/11/27 21:51:50;;;;;;;0.08;0.08;;;;;;;-0.63;85.68;99410.75;15731063;28;19926;-50
2023/11/27 21:59:25;;;;;;;0.00;0.00;;;;;;;-0.72;86.33;99408.31;15733484;28;20048;-52
2023/11/27 22:06:58;;;;;;;0.20;0.20;;;;;;;-0.94;87.08;99392.25;15732093;28;20044;-51
2023/11/27 22:14:33;;;;;;;0.40;0.40;;;;;;;-0.99;86.56;99378.75;15731564;28;20040;-51
2023/11/27 22:22:07;;;;;;;0.00;0.00;;;;;;;-0.92;86.99;99397.38;15729983;28;20395;-51
2023/11/27 22:29:43;;;;;;;0.00;0.00;;;;;;;-0.86;85.91;99384.31;15730164;28;20131;-49
2023/11/27 22:37:17;;;;;;;0.10;0.10;;;;;;;-0.87;86.42;99387.97;15729709;28;20040;-51
2023/11/27 22:44:52;;;;;;;0.10;0.10;;;;;;;-0.89;86.49;99386.47;15731982;28;20041;-51
2023/11/27 22:52:30;;;;;;;0.43;0.43;;;;;;;-0.83;86.00;99380.53;15742830;28;20090;-50
2023/11/27 23:00:10;;;;;;;0.63;0.63;;;;;;;-0.80;85.73;99352.03;15724077;28;20374;-50
2023/11/27 23:07:49;;;;;;;0.00;0.00;;;;;;;-0.88;85.67;99361.78;15741800;28;20048;-54
2023/11/27 23:15:24;;;;;;;2.30;2.10;;;;;;;-0.82;86.03;99350.56;15741446;28;20044;-54
2023/11/27 23:22:58;;;;;;;3.15;0.95;;;;;;;-0.86;86.09;99349.25;15740405;28;20114;-54
2023/11/27 23:30:33;;;;;;;0.43;0.43;;;;;;;-0.86;86.24;99349.25;15738500;28;20041;-50
2023/11/27 23:38:06;;;;;;;0.20;0.20;;;;;;;-0.71;86.25;99341.47;15740713;28;20040;-50
2023/11/27 23:45:41;;;;;;;0.10;0.10;;;;;;;-0.89;86.80;99336.44;15721705;28;20036;-51
2023/11/27 23:53:15;;;;;;;0.98;0.82;;;;;;;-0.83;86.02;99327.84;15731231;28;20405;-51
